Shedd, OR (97377)

5:32 PM PST on December 07, 2016 (GMT -0800)
Green Valley Rd | | Change Station
Active Advisory: Winter Storm Warning

Elev 259 ft 44.48 °N, 123.17 °W | Updated 7 minutes ago

Overcast
Overcast
30.4 °F
Feels Like 27 °F
N
3.2
Wind Variable Wind from East

Today
High -- | Low -- °F
--% Chance of Precip.
Yesterday
High -- | Low -- °F
Precip. -- in
Pressure 30.16 in
Visibility 10.0 miles
Clouds Overcast 20000 ft
Windchill 27 °F
Dew Point 30 °F
Humidity 99%
Rainfall 0.00 in
Snow Depth Not available.
7:35 AM 4:32 PM
First Quarter, 58% visible
METAR KEUG 080054Z 01009KT 10SM OVC200 00/M02 A3015 RMK AO2 SLP212 T00001022
Pressure 30.16 in
Visibility 10.0 miles
Clouds Overcast 20000 ft
Windchill 27 °F
Dew Point 30 °F
Humidity 99%
Rainfall 0.00 in
Snow Depth Not available.
7:35 AM 4:32 PM
First Quarter, 58% visible
METAR KEUG 080054Z 01009KT 10SM OVC200 00/M02 A3015 RMK AO2 SLP212 T00001022

10-Day Weather Forecast

Almanac

Astronomy

Dec. 07, 2016 Rise Set
Actual Time
Civil Twilight
Nautical Twilight
Astronomical Twilight
Moon
Length of Visible Light
Length of Day
Tomorrow will be .
, % of the Moon is Illuminated

Today's Extremes

State Highs State Lows

Community

WunderPhotos

Upload Photos

1,956,257 photos uploaded!

WunderBlog® & News

Nearby

Air Quality

  Air Quality AQ Index Pollutant
Not available.

Snow Depth

Station Depth Elevation

Earthquake Activity

City Distance Mag. Time & Date
Minimum magnitude displayed is 2.5.

Coastal Water Temperatures

Place Temperature

Stations

Nearby Weather Stations

Station Location Temp. Windchill Dew Point Humidity Wind Precip. Elev Updated Type
                   

Watches & Warnings

Winter Storm Warning
Issued: 2:00 PM PST Dec. 7, 2016 – National Weather Service

... Winter Storm Warning in effect from 4 am to 2 PM PST
Thursday for the south Willamette Valley... the central
Oregon Coast Range... and the south Oregon Cascade foothills...

The National Weather Service in Portland has issued a Winter
Storm Warning... which is in effect from 4 am to 2 PM PST Thursday.

* Timing... beginning just before sunrise Thursday morning and
continuing into mid afternoon Thursday. Precipitation should
mainly be freezing rain by around 10 am.

* Snow accumulations... 1 to 2 or 3 inches of snow is possible
Thursday morning in the foothills and Coast Range... light
accumulations of a trace to less than an inch in the south
Willamette Valley.

* Ice accumulations... up to one quarter of an inch of ice is
possible Thursday morning... perhaps lasting into the early
afternoon.

* Impacts... travel will be difficult as some brief snow
accumulations change to sleet and then freezing rain and roads
become snow and ice covered and slick. Some power disruptions
are possible.

Precautionary/preparedness actions...

A Winter Storm Warning means significant amounts of snow, sleet,
and ice are expected or occurring. Strong winds are also possible.
This will make travel very hazardous or impossible.